This is the latest recevied weather packets stored in our database for station/object GW1476. If no packets are shown the sender has not sent any weather packets the latest 10 day(s).
| Time | Temp. | Humidity | Pressure | Rain* | Wind** | Luminosity | Snow |
|---|---|---|---|---|---|---|---|
| 1777727567 | 8.89° C | 86% | 1019.3 hPa | 0 mm | - | - | - |
| 1777726834 | 8.33° C | 92% | 1019.3 hPa | 0 mm | - | - | - |
| 1777723604 | 5° C | 99% | 1019.3 hPa | 0 mm | - | - | - |
| 1777722892 | 5° C | 99% | 1019.3 hPa | 0 mm | - | - | - |
| 1777722152 | 3.33° C | 99% | 1019.3 hPa | 0 mm | - | - | - |
| 1777717127 | 2.22° C | 99% | 1018.9 hPa | 0 mm | - | - | - |
| 1777716391 | 2.22° C | 99% | 1019.3 hPa | 0 mm | - | - | - |
| 1777705945 | 4.44° C | 99% | 1018.9 hPa | 0 mm | - | - | - |
| 1777701647 | 6.11° C | 97% | 1019.3 hPa | 0 mm | - | - | - |
| 1777701289 | 6.11° C | 95% | 1019.3 hPa | 0 mm | - | - | - |
| 1777699821 | 6.67° C | 90% | 1019.3 hPa | 0 mm | - | - | - |
| 1777698388 | 7.78° C | 85% | 1019.3 hPa | 0 mm | - | - | - |
| 1777695875 | 9.44° C | 75% | 1019.3 hPa | 0 mm | - | - | - |
| 1777691175 | 10.56° C | 70% | 1019.6 hPa | 0 mm | - | - | - |
| 1777681112 | 12.78° C | 71% | 1016.5 hPa | 0 mm | - | - | - |
| 1777680766 | 12.78° C | 71% | 1016.5 hPa | 0 mm | - | - | - |
| 1777679693 | 13.33° C | 70% | 1016.2 hPa | 0 mm | - | - | - |
| 1777678973 | 13.33° C | 70% | 1015.9 hPa | 0 mm | - | - | - |
| 1777674654 | 15° C | 65% | 1015.2 hPa | 0 mm | - | - | - |
| 1777671759 | 16.11° C | 63% | 1014.9 hPa | 0 mm | - | - | - |
| 1777661322 | 23.33° C | 38% | 1014.2 hPa | 0 mm | - | - | - |
| 1777660943 | 21.67° C | 41% | 1014.2 hPa | 0 mm | - | - | - |
| 1777658814 | 20.56° C | 40% | 1014.2 hPa | 0 mm | - | - | - |
| 1777653757 | 19.44° C | 45% | 1014.5 hPa | 0 mm | - | - | - |
| 1777646530 | 15.56° C | 69% | 1015.9 hPa | 0 mm | - | - | - |
* Rain since midnight (hover to see other rain measurements)
** Current wind speed in m/s (hover to see current wind gust speed)